Time;durP1;ratioP1;P1;durP2;ratioP2;P2;SDS_P1;SDS_P2;PMS_P1;PMS_P2;Temp;Humidity;BMP_temperature;BMP_pressure;BME280_temperature;BME280_humidity;BME280_pressure;Samples;Min_cycle;Max_cycle;Signal;HPM_P1;HPM_P2
2021/01/06 00:02:10;;;;;;;25.30;13.52;;;3.10;99.90;;;;;;4924051;29;20032;-95
2021/01/06 00:04:36;;;;;;;23.90;12.30;;;3.10;99.90;;;;;;4925434;28;20024;-95
2021/01/06 00:07:04;;;;;;;22.92;12.50;;;3.10;99.90;;;;;;4933741;29;20016;-92
2021/01/06 00:09:30;;;;;;;23.70;13.15;;;3.10;99.90;;;;;;4928212;29;20028;-93
2021/01/06 00:12:02;;;;;;;25.02;13.50;;;3.00;99.90;;;;;;4943329;29;20031;-94
2021/01/06 00:14:28;;;;;;;22.10;11.05;;;3.00;99.90;;;;;;5117398;23;20134;-93
2021/01/06 00:19:46;;;;;;;23.88;12.15;;;3.00;99.90;;;;;;5272074;23;20182;-90
2021/01/06 00:22:19;;;;;;;24.90;13.18;;;3.00;99.90;;;;;;4909536;29;20008;-92
2021/01/06 00:24:53;;;;;;;25.58;13.10;;;3.00;99.90;;;;;;4909770;29;20036;-96
2021/01/06 00:27:32;;;;;;;26.58;14.68;;;3.00;99.90;;;;;;4905956;29;20028;-96
2021/01/06 00:30:11;;;;;;;25.85;13.38;;;2.90;99.90;;;;;;4922008;29;20036;-95
2021/01/06 00:32:37;;;;;;;25.73;13.15;;;2.90;99.90;;;;;;4897300;29;20060;-96
2021/01/06 00:35:06;;;;;;;25.02;13.57;;;2.80;99.90;;;;;;4897121;29;20033;-96
2021/01/06 00:37:31;;;;;;;26.30;13.32;;;2.80;99.90;;;;;;4908285;29;20020;-95
2021/01/06 00:39:57;;;;;;;27.75;14.32;;;2.90;99.90;;;;;;4895911;29;20096;-94
2021/01/06 00:42:27;;;;;;;26.90;13.55;;;2.80;99.90;;;;;;4898375;29;20024;-92
2021/01/06 00:44:53;;;;;;;29.77;14.73;;;2.90;99.90;;;;;;4891263;29;20476;-94
2021/01/06 00:47:21;;;;;;;33.00;16.55;;;3.00;99.90;;;;;;4893566;29;20132;-94
2021/01/06 00:49:50;;;;;;;32.45;13.85;;;3.10;99.90;;;;;;4900145;29;20027;-93
2021/01/06 00:52:16;;;;;;;33.78;15.18;;;3.10;99.90;;;;;;4907242;29;20140;-92
2021/01/06 00:54:41;;;;;;;34.40;16.33;;;3.00;99.90;;;;;;4883928;29;20041;-92
2021/01/06 00:57:08;;;;;;;36.67;15.77;;;3.00;99.90;;;;;;4896816;29;20093;-94
2021/01/06 00:59:37;;;;;;;32.13;15.88;;;3.00;99.90;;;;;;4870345;29;20447;-93
2021/01/06 01:02:05;;;;;;;36.50;17.08;;;3.00;99.90;;;;;;4818114;29;20049;-93
2021/01/06 01:04:31;;;;;;;32.20;16.77;;;3.00;99.90;;;;;;4793221;30;20047;-94
2021/01/06 01:06:57;;;;;;;36.45;15.40;;;2.90;99.90;;;;;;4814594;29;20144;-95
2021/01/06 01:09:24;;;;;;;44.85;20.05;;;2.90;99.90;;;;;;4804588;29;20039;-95
2021/01/06 01:11:52;;;;;;;39.30;17.05;;;3.00;99.90;;;;;;4804992;29;20048;-94
2021/01/06 01:14:24;;;;;;;39.00;16.40;;;2.90;99.90;;;;;;4798902;30;20043;-95
2021/01/06 01:16:53;;;;;;;38.10;17.58;;;3.00;99.90;;;;;;4803533;29;20106;-94
2021/01/06 01:19:19;;;;;;;39.78;17.33;;;3.00;99.90;;;;;;4790684;29;20091;-93
2021/01/06 01:21:46;;;;;;;36.92;18.25;;;2.90;99.90;;;;;;4787718;30;20131;-93
2021/01/06 01:24:12;;;;;;;39.80;17.80;;;2.80;99.90;;;;;;4790475;30;20039;-94
2021/01/06 01:26:39;;;;;;;33.70;15.68;;;2.90;99.90;;;;;;4839755;29;20136;-93
2021/01/06 01:29:06;;;;;;;43.08;19.63;;;3.00;99.90;;;;;;4878806;29;20138;-93
2021/01/06 01:31:37;;;;;;;43.70;18.52;;;2.90;99.90;;;;;;4881535;29;20022;-94
2021/01/06 01:34:05;;;;;;;40.20;18.58;;;2.90;99.90;;;;;;4851787;29;20041;-92
2021/01/06 01:36:31;;;;;;;37.17;17.92;;;3.00;99.90;;;;;;4883422;29;20025;-92
2021/01/06 01:38:57;;;;;;;37.28;17.88;;;2.90;99.90;;;;;;4868134;29;20196;-92
2021/01/06 01:41:25;;;;;;;37.17;19.45;;;2.90;99.90;;;;;;4884040;29;20038;-93
2021/01/06 01:43:53;;;;;;;41.58;18.15;;;2.90;99.90;;;;;;4867912;29;20026;-93
2021/01/06 01:46:54;;;;;;;37.47;19.17;;;2.90;99.90;;;;;;4887201;29;20041;-93
2021/01/06 01:49:29;;;;;;;40.45;17.92;;;2.90;99.90;;;;;;4893923;29;20021;-95
2021/01/06 01:52:14;;;;;;;45.17;19.35;;;3.00;99.90;;;;;;4895535;29;20041;-93
2021/01/06 01:54:43;;;;;;;42.63;19.77;;;3.00;99.90;;;;;;4908969;29;20031;-94
2021/01/06 01:57:17;;;;;;;39.92;19.00;;;3.10;99.90;;;;;;4907797;29;20024;-94
2021/01/06 01:59:48;;;;;;;41.92;18.98;;;3.10;99.90;;;;;;4876408;29;20181;-93
2021/01/06 02:02:32;;;;;;;39.17;19.77;;;3.10;99.90;;;;;;4899614;29;20048;-95
2021/01/06 02:05:24;;;;;;;36.47;16.98;;;3.00;99.90;;;;;;4887685;29;20101;-94
2021/01/06 02:07:58;;;;;;;33.60;16.90;;;2.90;99.90;;;;;;4886545;29;20029;-96
2021/01/06 02:10:30;;;;;;;37.25;17.48;;;3.00;99.90;;;;;;4902501;29;20044;-95
2021/01/06 02:13:31;;;;;;;35.67;16.88;;;3.00;99.90;;;;;;4902486;29;20060;-94
2021/01/06 02:16:20;;;;;;;39.13;16.85;;;3.00;99.90;;;;;;4866117;29;20037;-96
2021/01/06 02:18:51;;;;;;;41.00;17.92;;;3.00;99.90;;;;;;4886305;29;20545;-95
2021/01/06 02:21:25;;;;;;;38.05;16.88;;;3.00;99.90;;;;;;4870280;29;20172;-92
2021/01/06 02:23:53;;;;;;;35.08;16.77;;;3.00;99.90;;;;;;4869564;29;20029;-90
2021/01/06 02:26:24;;;;;;;34.60;16.63;;;3.00;99.90;;;;;;4882091;29;20196;-92
2021/01/06 02:28:50;;;;;;;35.70;16.83;;;3.00;99.90;;;;;;4896062;29;20037;-90
2021/01/06 02:31:17;;;;;;;33.20;15.68;;;3.00;99.90;;;;;;4887963;29;20069;-92
2021/01/06 02:33:44;;;;;;;30.58;15.38;;;3.10;99.90;;;;;;4887881;29;20037;-90
2021/01/06 02:36:10;;;;;;;31.38;15.20;;;3.10;99.90;;;;;;4910839;29;20051;-91
2021/01/06 02:38:36;;;;;;;25.30;13.65;;;3.10;99.90;;;;;;4895454;29;20048;-92
2021/01/06 02:41:03;;;;;;;33.47;15.25;;;3.10;99.90;;;;;;4895296;29;20033;-91
2021/01/06 02:43:29;;;;;;;27.38;14.70;;;3.10;99.90;;;;;;4911830;29;20035;-91
2021/01/06 02:45:56;;;;;;;24.45;12.35;;;3.10;99.90;;;;;;4872286;29;20109;-90
2021/01/06 02:48:24;;;;;;;25.80;12.52;;;3.10;99.90;;;;;;4867836;29;20092;-90
2021/01/06 02:51:07;;;;;;;22.83;11.23;;;3.10;99.90;;;;;;4861363;29;20057;-91
2021/01/06 02:53:40;;;;;;;23.42;11.77;;;3.10;99.90;;;;;;4861940;29;20045;-90
2021/01/06 02:56:06;;;;;;;19.95;10.95;;;3.20;99.90;;;;;;4846484;29;20058;-90
2021/01/06 02:58:34;;;;;;;23.60;11.20;;;3.20;99.90;;;;;;4878440;29;20018;-91
2021/01/06 03:01:00;;;;;;;20.90;11.68;;;3.10;99.90;;;;;;4863439;29;20026;-91
2021/01/06 03:03:31;;;;;;;23.98;11.45;;;3.10;99.90;;;;;;4873096;29;20030;-92
2021/01/06 03:06:30;;;;;;;23.00;12.27;;;3.20;99.90;;;;;;4874958;29;20153;-92
2021/01/06 03:08:56;;;;;;;21.08;12.40;;;3.10;99.90;;;;;;4867577;29;20030;-90
2021/01/06 03:11:24;;;;;;;24.15;12.73;;;3.10;99.90;;;;;;4880806;29;20570;-90
2021/01/06 03:13:49;;;;;;;27.33;13.43;;;3.10;99.90;;;;;;4885193;29;20039;-88
2021/01/06 03:16:16;;;;;;;24.75;12.77;;;3.20;99.90;;;;;;4898963;29;20092;-89
2021/01/06 03:18:42;;;;;;;31.00;15.50;;;3.30;99.90;;;;;;4909758;29;20017;-90
2021/01/06 03:21:09;;;;;;;30.45;15.75;;;3.40;99.90;;;;;;4914466;29;20100;-90
2021/01/06 03:23:40;;;;;;;28.75;14.35;;;3.40;99.90;;;;;;4903521;29;20040;-88
2021/01/06 03:26:09;;;;;;;;;;;3.30;99.90;;;;;;4903410;29;20027;-90
2021/01/06 03:28:36;;;;;;;24.92;13.70;;;3.20;99.90;;;;;;4903914;29;20042;-88
2021/01/06 03:31:09;;;;;;;26.23;12.52;;;3.30;99.90;;;;;;4918183;29;20028;-90
2021/01/06 03:33:42;;;;;;;27.88;14.38;;;3.20;99.90;;;;;;4920140;29;20041;-90
2021/01/06 03:36:13;;;;;;;29.02;13.85;;;3.20;99.90;;;;;;4901305;29;20032;-92
2021/01/06 03:38:51;;;;;;;21.38;12.13;;;3.20;99.90;;;;;;4886648;29;20025;-91
2021/01/06 03:41:17;;;;;;;21.52;11.85;;;3.10;99.90;;;;;;4881819;29;20025;-90
2021/01/06 03:43:48;;;;;;;24.33;13.20;;;3.10;99.90;;;;;;4900529;29;20033;-90
2021/01/06 03:46:24;;;;;;;21.45;12.15;;;3.20;99.90;;;;;;4906020;29;20164;-90
2021/01/06 03:49:12;;;;;;;23.25;12.75;;;3.20;99.90;;;;;;4879447;29;20041;-90
2021/01/06 03:52:01;;;;;;;23.65;13.00;;;3.20;99.90;;;;;;4819617;29;20465;-91
2021/01/06 03:54:40;;;;;;;25.98;13.13;;;3.20;99.90;;;;;;4805262;29;20030;-88
2021/01/06 03:57:08;;;;;;;25.65;14.43;;;3.30;99.90;;;;;;4812699;29;20110;-89
2021/01/06 03:59:36;;;;;;;31.33;17.20;;;3.30;99.90;;;;;;4821519;29;20029;-88
2021/01/06 04:02:24;;;;;;;30.50;17.55;;;3.40;99.90;;;;;;4829301;29;20072;-88
2021/01/06 04:05:08;;;;;;;33.17;16.17;;;3.40;99.90;;;;;;4834376;29;20015;-88
2021/01/06 04:07:40;;;;;;;30.40;15.55;;;3.40;99.90;;;;;;4833675;29;20485;-88
2021/01/06 04:10:12;;;;;;;31.33;15.35;;;3.50;99.90;;;;;;4797879;29;20107;-88
2021/01/06 04:12:38;;;;;;;32.88;15.77;;;3.40;99.90;;;;;;4798109;29;20043;-88
2021/01/06 04:15:05;;;;;;;32.53;17.23;;;3.30;99.90;;;;;;4797293;29;20592;-88
2021/01/06 04:17:34;;;;;;;28.15;15.80;;;3.30;99.90;;;;;;4787987;30;20511;-88
2021/01/06 04:20:15;;;;;;;25.80;14.20;;;3.30;99.90;;;;;;4772784;30;20358;-88
2021/01/06 04:22:54;;;;;;;28.73;13.98;;;3.40;99.90;;;;;;4787910;30;20048;-89
2021/01/06 04:25:33;;;;;;;28.20;14.30;;;3.40;99.90;;;;;;4789190;29;20114;-88
2021/01/06 04:28:20;;;;;;;32.10;15.75;;;3.50;99.90;;;;;;4800917;29;20123;-89
2021/01/06 04:30:48;;;;;;;28.48;13.32;;;3.40;99.90;;;;;;4852833;29;20062;-88
2021/01/06 04:33:16;;;;;;;28.70;15.45;;;3.40;99.90;;;;;;4856891;29;20089;-88
2021/01/06 04:35:42;;;;;;;32.85;16.58;;;3.40;99.90;;;;;;4855375;29;20038;-89
2021/01/06 04:38:08;;;;;;;27.23;14.57;;;3.40;99.90;;;;;;4842306;29;20046;-88
2021/01/06 04:40:38;;;;;;;27.10;14.15;;;3.40;99.90;;;;;;4878412;29;20060;-88
2021/01/06 04:43:34;;;;;;;26.23;13.90;;;3.40;99.90;;;;;;4909605;29;20039;-89
2021/01/06 04:46:41;;;;;;;28.05;14.50;;;3.40;99.90;;;;;;4905802;29;20021;-90
2021/01/06 04:49:23;;;;;;;25.67;13.05;;;3.40;99.90;;;;;;4908195;29;20036;-90
2021/01/06 04:52:04;;;;;;;;;;;3.40;99.90;;;;;;4909881;29;20124;-87
2021/01/06 04:54:50;;;;;;;24.70;11.93;;;3.60;99.90;;;;;;4909254;29;19993;-91
2021/01/06 04:57:16;;;;;;;26.75;13.10;;;3.50;99.90;;;;;;4929223;29;20012;-90
2021/01/06 05:00:19;;;;;;;30.17;13.50;;;3.60;99.90;;;;;;4919343;29;20032;-88
2021/01/06 05:03:04;;;;;;;26.80;13.07;;;3.60;99.90;;;;;;4924247;29;20036;-88
2021/01/06 05:05:51;;;;;;;31.35;14.75;;;3.50;99.90;;;;;;4890514;29;20089;-89
2021/01/06 05:08:44;;;;;;;26.63;13.15;;;3.50;99.90;;;;;;4896900;29;20093;-91
2021/01/06 05:11:18;;;;;;;26.33;13.18;;;3.40;99.90;;;;;;4901008;29;20466;-89
2021/01/06 05:13:50;;;;;;;20.98;11.60;;;3.40;99.90;;;;;;4902837;29;20100;-92
2021/01/06 05:16:27;;;;;;;13.70;6.53;;;3.40;99.90;;;;;;4900460;29;20095;-91
2021/01/06 05:18:55;;;;;;;9.27;5.47;;;3.30;99.90;;;;;;4924807;29;20024;-92
2021/01/06 05:21:25;;;;;;;11.70;5.72;;;3.10;99.90;;;;;;4904308;29;20439;-92
2021/01/06 05:23:57;;;;;;;12.40;6.63;;;3.00;99.90;;;;;;4886818;29;20029;-91
2021/01/06 05:26:23;;;;;;;12.20;5.88;;;2.90;99.90;;;;;;4910173;29;20073;-92
2021/01/06 05:28:49;;;;;;;13.15;7.60;;;2.80;99.90;;;;;;4879226;29;20041;-92
2021/01/06 05:31:15;;;;;;;12.57;6.25;;;2.60;99.90;;;;;;4907894;29;20029;-94
2021/01/06 05:33:47;;;;;;;14.32;7.53;;;2.50;99.90;;;;;;4897691;29;20487;-92
2021/01/06 05:36:24;;;;;;;22.55;8.77;;;2.40;99.90;;;;;;4919585;29;20020;-93
2021/01/06 05:38:49;;;;;;;15.13;8.40;;;2.30;99.90;;;;;;4906286;29;20024;-92
2021/01/06 05:41:15;;;;;;;16.75;8.65;;;2.30;99.90;;;;;;4898191;29;20024;-90
2021/01/06 05:43:45;;;;;;;21.20;9.27;;;2.30;99.90;;;;;;4888092;29;20029;-90
2021/01/06 05:46:19;;;;;;;27.27;10.05;;;2.40;99.90;;;;;;4889917;29;20029;-89
2021/01/06 05:49:00;;;;;;;23.48;10.38;;;2.60;99.90;;;;;;4901016;29;20055;-90
2021/01/06 05:51:36;;;;;;;23.05;10.73;;;2.70;99.90;;;;;;4906779;29;20160;-92
2021/01/06 05:54:20;;;;;;;23.77;11.00;;;2.70;99.90;;;;;;4905993;29;20041;-92
2021/01/06 05:57:01;;;;;;;23.23;10.00;;;2.80;99.90;;;;;;4869901;29;20474;-93
2021/01/06 05:59:46;;;;;;;22.02;10.15;;;2.80;99.90;;;;;;4884697;29;20035;-90
2021/01/06 06:02:47;;;;;;;21.85;11.95;;;2.90;99.90;;;;;;4879213;29;20029;-91
2021/01/06 06:05:45;;;;;;;25.67;10.68;;;3.00;99.90;;;;;;4889740;29;20033;-91
2021/01/06 06:08:36;;;;;;;26.80;12.85;;;2.90;99.90;;;;;;4870267;29;20057;-90
2021/01/06 06:11:26;;;;;;;24.15;11.85;;;2.90;99.90;;;;;;4890175;29;20029;-90
2021/01/06 06:14:14;;;;;;;20.75;10.80;;;3.00;99.90;;;;;;4892482;29;20028;-91
2021/01/06 06:16:58;;;;;;;21.08;11.63;;;3.00;99.90;;;;;;4904240;29;20039;-92
2021/01/06 06:19:49;;;;;;;21.50;10.35;;;3.00;99.90;;;;;;4897695;29;20025;-89
2021/01/06 06:22:24;;;;;;;25.63;11.98;;;3.00;99.90;;;;;;4891536;29;20037;-89
2021/01/06 06:25:14;;;;;;;22.98;11.10;;;3.00;99.90;;;;;;4911182;29;20040;-90
2021/01/06 06:28:31;;;;;;;23.23;11.25;;;3.00;99.90;;;;;;4914405;29;20037;-89
2021/01/06 06:31:16;;;;;;;26.88;11.50;;;3.10;99.90;;;;;;4889308;29;20036;-90
2021/01/06 06:33:44;;;;;;;21.83;11.57;;;3.10;99.90;;;;;;4911454;29;20124;-89
2021/01/06 06:36:26;;;;;;;25.00;11.20;;;3.20;99.90;;;;;;4885115;29;20029;-90
2021/01/06 06:38:52;;;;;;;;;;;3.20;99.90;;;;;;4877990;29;20029;-89
2021/01/06 06:41:26;;;;;;;19.60;10.63;;;3.20;99.90;;;;;;4907190;29;19983;-92
2021/01/06 06:44:21;;;;;;;19.73;10.90;;;3.10;99.90;;;;;;4901124;29;20514;-92
2021/01/06 06:47:16;;;;;;;23.95;12.57;;;3.10;99.90;;;;;;4867191;29;20037;-90
2021/01/06 06:50:15;;;;;;;22.15;11.35;;;3.00;99.90;;;;;;4889047;29;20020;-90
2021/01/06 06:53:12;;;;;;;21.88;10.98;;;3.10;99.90;;;;;;4902820;29;20026;-92
2021/01/06 06:56:12;;;;;;;22.38;12.68;;;3.10;99.90;;;;;;4901636;29;20068;-90
2021/01/06 06:58:50;;;;;;;23.00;12.73;;;3.00;99.90;;;;;;4906529;29;20039;-89
2021/01/06 07:01:21;;;;;;;21.30;11.57;;;3.10;99.90;;;;;;4893896;29;20427;-89
2021/01/06 07:03:59;;;;;;;20.30;11.93;;;3.00;99.90;;;;;;4883441;29;20051;-90
2021/01/06 07:08:58;;;;;;;26.25;12.60;;;3.10;99.90;;;;;;4919603;29;20107;-88
2021/01/06 07:11:50;;;;;;;26.67;12.65;;;3.20;99.90;;;;;;4916771;29;20028;-88
2021/01/06 07:14:31;;;;;;;20.15;12.38;;;3.20;99.90;;;;;;4902486;29;20028;-89
2021/01/06 07:17:00;;;;;;;;;;;3.20;99.90;;;;;;4895618;29;20028;-88
2021/01/06 07:19:31;;;;;;;22.80;12.05;;;3.20;99.90;;;;;;4901793;29;19907;-90
2021/01/06 07:22:12;;;;;;;25.75;13.85;;;3.20;99.90;;;;;;4902410;29;20035;-90
2021/01/06 07:24:39;;;;;;;21.33;12.93;;;3.20;99.90;;;;;;4918354;29;20044;-89
2021/01/06 07:27:06;;;;;;;21.73;12.77;;;3.20;99.90;;;;;;4905037;29;20036;-90
2021/01/06 07:29:52;;;;;;;21.08;11.55;;;3.10;99.90;;;;;;4902226;29;20053;-89
2021/01/06 07:32:22;;;;;;;22.17;12.27;;;3.20;99.90;;;;;;4879109;29;20028;-89
2021/01/06 07:34:54;;;;;;;20.13;11.77;;;3.10;99.90;;;;;;4900152;29;20513;-90
2021/01/06 07:37:35;;;;;;;22.85;12.80;;;3.10;99.90;;;;;;4903908;29;20088;-91
2021/01/06 07:40:31;;;;;;;22.95;13.13;;;3.20;99.90;;;;;;4917433;29;20023;-89
2021/01/06 07:43:19;;;;;;;27.10;13.00;;;3.30;99.90;;;;;;4934025;29;20029;-89
2021/01/06 07:46:08;;;;;;;24.70;13.52;;;3.20;99.90;;;;;;4893158;29;20036;-89
2021/01/06 07:48:54;;;;;;;22.00;12.63;;;3.20;99.90;;;;;;4864648;29;20029;-90
2021/01/06 07:51:51;;;;;;;22.15;12.82;;;3.20;99.90;;;;;;4892960;29;20351;-91
2021/01/06 07:54:38;;;;;;;23.52;15.48;;;3.20;99.90;;;;;;4831813;29;20062;-91
2021/01/06 07:57:27;;;;;;;20.90;12.32;;;3.20;99.90;;;;;;4814404;29;20095;-90
2021/01/06 08:00:05;;;;;;;19.77;11.93;;;3.20;99.90;;;;;;4820398;29;20049;-90
2021/01/06 08:02:47;;;;;;;20.75;12.20;;;3.30;99.90;;;;;;4802384;29;20456;-91
2021/01/06 08:05:12;;;;;;;;;;;3.30;99.90;;;;;;4816921;29;20039;-91
2021/01/06 08:07:42;;;;;;;22.08;11.57;;;3.30;99.90;;;;;;4811238;29;19921;-91
2021/01/06 08:10:36;;;;;;;26.27;12.82;;;3.30;99.90;;;;;;4810368;29;20408;-91
2021/01/06 08:13:29;;;;;;;20.85;11.65;;;3.30;99.90;;;;;;4814358;29;20043;-91
2021/01/06 08:16:23;;;;;;;18.58;10.50;;;3.30;99.90;;;;;;4796656;29;20077;-90
2021/01/06 08:22:22;;;;;;;20.75;12.93;;;3.50;99.90;;;;;;4839019;29;20036;-90
2021/01/06 08:25:02;;;;;;;18.20;11.55;;;3.50;99.90;;;;;;4829697;29;20118;-91
2021/01/06 08:27:40;;;;;;;21.83;12.43;;;3.40;99.90;;;;;;4839813;29;20471;-93
2021/01/06 08:30:28;;;;;;;21.55;12.30;;;3.40;99.90;;;;;;4832335;29;20093;-91
2021/01/06 08:33:13;;;;;;;25.35;14.30;;;3.50;99.90;;;;;;4922856;29;20051;-92
2021/01/06 08:35:45;;;;;;;21.48;12.98;;;3.50;99.90;;;;;;4883608;29;20072;-91
2021/01/06 08:38:32;;;;;;;25.60;14.30;;;3.50;99.90;;;;;;4911641;29;20330;-90
2021/01/06 08:41:23;;;;;;;23.05;14.23;;;3.50;99.90;;;;;;4873122;29;20033;-91
2021/01/06 08:43:50;;;;;;;22.85;14.85;;;3.60;99.90;;;;;;4896188;29;20029;-90
2021/01/06 08:46:28;;;;;;;27.48;16.58;;;3.50;99.90;;;;;;4904195;29;20130;-92
2021/01/06 08:49:15;;;;;;;27.88;15.68;;;3.60;99.90;;;;;;4928231;29;20084;-91
2021/01/06 08:51:46;;;;;;;29.80;16.65;;;3.60;99.90;;;;;;4909582;29;20028;-93
2021/01/06 08:54:30;;;;;;;31.55;18.00;;;3.70;99.90;;;;;;4876185;29;20123;-92
2021/01/06 08:57:37;;;;;;;28.75;16.08;;;3.70;99.90;;;;;;4886429;29;20058;-94
2021/01/06 09:00:23;;;;;;;32.90;17.65;;;3.70;99.90;;;;;;4866808;29;20073;-92
2021/01/06 09:03:13;;;;;;;33.25;18.20;;;3.70;99.90;;;;;;4904661;29;20024;-94
2021/01/06 09:06:10;;;;;;;27.45;16.17;;;3.70;99.90;;;;;;4906674;29;20155;-92
2021/01/06 09:08:37;;;;;;;29.35;17.52;;;3.60;99.90;;;;;;4900673;29;20053;-91
2021/01/06 09:11:23;;;;;;;30.42;16.20;;;3.60;99.90;;;;;;4907238;29;20033;-94
2021/01/06 09:14:22;;;;;;;29.65;16.65;;;3.60;99.90;;;;;;4893514;29;20032;-96
2021/01/06 09:17:12;;;;;;;32.22;16.58;;;3.60;99.90;;;;;;4891660;29;20100;-96
2021/01/06 09:19:46;;;;;;;37.37;18.13;;;3.60;99.90;;;;;;4910679;29;20036;-92
2021/01/06 09:22:14;;;;;;;29.58;16.73;;;3.60;99.90;;;;;;4920226;29;20116;-92
2021/01/06 09:24:41;;;;;;;30.60;17.15;;;3.60;99.90;;;;;;4916058;29;20105;-90
2021/01/06 09:27:21;;;;;;;34.83;17.83;;;3.70;99.90;;;;;;4900066;29;20107;-91
2021/01/06 09:29:48;;;;;;;34.35;18.15;;;3.70;99.90;;;;;;4891844;29;20036;-89
2021/01/06 09:32:22;;;;;;;33.65;17.58;;;3.80;99.90;;;;;;4916033;29;20036;-93
2021/01/06 09:37:27;;;;;;;34.00;18.13;;;3.80;99.90;;;;;;5074246;23;20074;-94
2021/01/06 09:42:31;;;;;;;32.42;17.48;;;3.90;99.90;;;;;;5761963;23;20060;-92
2021/01/06 09:47:41;;;;;;;30.55;16.83;;;4.00;99.90;;;;;;4950431;23;20096;-91
2021/01/06 09:50:21;;;;;;;29.42;17.75;;;4.10;99.90;;;;;;5137509;23;20056;-89
2021/01/06 09:52:52;;;;;;;27.10;15.95;;;4.00;99.90;;;;;;4861973;29;20050;-94
2021/01/06 09:58:19;;;;;;;25.67;14.93;;;4.30;99.90;;;;;;4949362;23;20734;-89
2021/01/06 10:00:50;;;;;;;;;;;4.40;99.90;;;;;;4906472;29;20032;-92
2021/01/06 10:03:29;;;;;;;29.63;15.38;;;4.40;99.90;;;;;;5046517;23;19915;-90
2021/01/06 10:09:26;;;;;;;27.75;15.05;;;4.60;99.90;;;;;;5006753;23;21021;-88
2021/01/06 10:11:58;;;;;;;27.17;15.70;;;4.60;99.90;;;;;;4906159;29;20100;-92
2021/01/06 10:14:45;;;;;;;27.05;15.32;;;4.60;99.90;;;;;;4906099;29;20071;-90
2021/01/06 10:17:29;;;;;;;24.58;14.25;;;4.80;99.90;;;;;;4906060;29;20020;-92
2021/01/06 10:20:30;;;;;;;28.38;15.60;;;5.00;99.90;;;;;;4920956;29;20016;-91
2021/01/06 10:23:27;;;;;;;26.48;15.13;;;5.00;99.90;;;;;;4905588;29;20023;-93
2021/01/06 10:26:44;;;;;;;27.92;15.38;;;5.00;99.90;;;;;;4905298;29;20027;-94
2021/01/06 10:40:42;;;;;;;;;;;4.60;99.90;;;;;;5291679;23;20137;-86
2021/01/06 10:43:46;;;;;;;22.63;13.57;;;4.40;99.90;;;;;;4905941;29;19915;-92
2021/01/06 10:46:52;;;;;;;26.50;14.55;;;4.30;99.90;;;;;;4935430;23;20036;-89
2021/01/06 10:49:38;;;;;;;30.30;16.05;;;4.30;99.90;;;;;;4894703;29;20016;-85
2021/01/06 10:52:27;;;;;;;29.30;15.27;;;4.10;99.90;;;;;;4810644;30;20075;-94
2021/01/06 10:55:05;;;;;;;28.08;15.40;;;4.10;99.90;;;;;;4782071;23;20060;-87
2021/01/06 11:00:34;;;;;;;24.08;14.93;;;4.20;99.90;;;;;;5288703;23;20027;31
2021/01/06 11:03:35;;;;;;;26.17;12.52;;;4.30;99.90;;;;;;4859317;29;20045;-92
2021/01/06 11:06:26;;;;;;;22.92;13.35;;;4.30;99.90;;;;;;4807366;29;20038;-93
2021/01/06 11:09:10;;;;;;;24.20;13.43;;;4.30;99.90;;;;;;4890928;23;20053;-94
2021/01/06 11:14:59;;;;;;;24.30;13.00;;;4.40;99.90;;;;;;4943564;23;20052;-92
2021/01/06 11:17:39;;;;;;;21.48;12.38;;;4.40;99.90;;;;;;4925898;29;20040;-93
2021/01/06 11:20:35;;;;;;;22.02;12.10;;;4.50;99.90;;;;;;4902494;29;20033;-95
2021/01/06 11:25:49;;;;;;;21.83;11.70;;;4.50;99.90;;;;;;4905212;29;20282;-92
2021/01/06 11:28:44;;;;;;;18.70;11.00;;;4.50;99.90;;;;;;4889265;29;20037;-91
2021/01/06 11:31:12;;;;;;;18.75;10.98;;;4.60;99.90;;;;;;4885798;29;20065;-92
2021/01/06 11:33:39;;;;;;;18.13;11.43;;;4.60;99.90;;;;;;4914543;29;20088;-92
2021/01/06 11:36:10;;;;;;;18.98;11.18;;;4.50;99.90;;;;;;4895909;29;20031;-90
2021/01/06 11:38:56;;;;;;;17.45;11.75;;;4.50;99.90;;;;;;4878015;29;20051;-95
2021/01/06 11:41:25;;;;;;;18.65;10.48;;;4.40;99.90;;;;;;4897593;29;20016;-94
2021/01/06 11:43:57;;;;;;;20.77;11.43;;;4.40;99.90;;;;;;4897987;29;20043;-91
2021/01/06 11:46:39;;;;;;;17.10;10.57;;;4.50;99.90;;;;;;4899838;29;20072;-93
2021/01/06 11:49:10;;;;;;;18.20;10.02;;;4.50;99.90;;;;;;4886191;29;20127;-93
2021/01/06 11:51:36;;;;;;;;;;;4.50;99.90;;;;;;4898973;29;20032;-91
2021/01/06 11:54:28;;;;;;;18.33;10.73;;;4.50;99.90;;;;;;4908389;29;19911;-94
2021/01/06 11:57:04;;;;;;;18.90;10.95;;;4.40;99.90;;;;;;4898904;29;20025;-94
2021/01/06 11:59:41;;;;;;;23.85;13.80;;;4.40;99.90;;;;;;5053696;23;20052;-94
2021/01/06 12:02:25;;;;;;;24.75;13.65;;;4.60;99.90;;;;;;4913397;29;20012;-95
2021/01/06 12:05:23;;;;;;;22.38;13.27;;;4.50;99.90;;;;;;4881692;29;20033;-94
2021/01/06 12:08:32;;;;;;;22.70;13.10;;;4.50;99.90;;;;;;4882613;29;20018;-93
2021/01/06 12:22:12;;;;;;;21.95;12.43;;;4.40;99.90;;;;;;4939244;29;20084;-91
2021/01/06 12:24:37;;;;;;;;;;;4.20;99.90;;;;;;4921908;29;20103;-93
2021/01/06 12:27:29;;;;;;;25.15;13.38;;;4.20;99.90;;;;;;4911702;29;19995;-92
2021/01/06 12:30:09;;;;;;;29.25;15.85;;;4.30;99.90;;;;;;4893816;29;20044;-93
2021/01/06 12:33:05;;;;;;;26.63;14.83;;;4.30;99.90;;;;;;4917448;29;20040;-93
2021/01/06 12:35:39;;;;;;;25.95;16.67;;;4.00;99.90;;;;;;4920043;29;20026;-91
2021/01/06 12:38:24;;;;;;;31.95;18.50;;;4.10;99.90;;;;;;4897210;29;20088;-94
2021/01/06 12:46:33;;;;;;;31.83;18.98;;;4.00;99.90;;;;;;5348606;23;20063;-91
2021/01/06 12:49:14;;;;;;;33.28;19.10;;;4.10;99.90;;;;;;4905146;29;20021;-92
2021/01/06 12:51:58;;;;;;;33.53;19.25;;;4.20;99.90;;;;;;4956337;23;20093;-91
2021/01/06 12:54:35;;;;;;;34.10;19.20;;;4.20;99.90;;;;;;4909396;29;20100;-94
2021/01/06 12:57:24;;;;;;;36.05;19.88;;;4.20;99.90;;;;;;4900192;29;20021;-92
2021/01/06 13:00:01;;;;;;;33.67;18.40;;;4.30;99.90;;;;;;4899454;29;20017;-91
2021/01/06 13:02:37;;;;;;;32.72;18.75;;;4.20;99.90;;;;;;4904689;29;20039;-91
2021/01/06 13:05:24;;;;;;;32.72;18.60;;;4.10;99.90;;;;;;4891664;29;20033;-93
2021/01/06 13:07:52;;;;;;;32.67;18.27;;;4.10;99.90;;;;;;4882031;29;20028;-93
2021/01/06 13:10:44;;;;;;;35.33;19.30;;;4.20;99.90;;;;;;4880975;29;20035;-92
2021/01/06 13:13:32;;;;;;;32.25;18.27;;;4.20;99.90;;;;;;4802369;29;20035;-92
2021/01/06 13:16:14;;;;;;;32.55;17.73;;;4.20;99.90;;;;;;4806130;29;20027;-91
2021/01/06 13:18:56;;;;;;;29.23;17.75;;;4.20;99.90;;;;;;4809383;29;20089;-89
2021/01/06 13:21:38;;;;;;;32.00;19.13;;;4.20;99.90;;;;;;4780079;29;20034;-90
2021/01/06 13:24:16;;;;;;;31.15;17.73;;;4.20;99.90;;;;;;4807182;29;20035;-90
2021/01/06 13:26:58;;;;;;;29.90;16.50;;;4.30;99.90;;;;;;4806513;29;20026;-93
2021/01/06 13:29:26;;;;;;;25.90;15.48;;;4.30;99.90;;;;;;4765653;29;20096;-94
2021/01/06 13:32:14;;;;;;;24.77;13.93;;;4.20;99.90;;;;;;4805044;30;20075;-93
2021/01/06 13:34:56;;;;;;;23.23;14.60;;;4.10;99.90;;;;;;4797003;30;20035;-93
2021/01/06 13:37:30;;;;;;;26.65;14.77;;;4.20;99.90;;;;;;4810765;29;20027;-94
2021/01/06 13:40:45;;;;;;;39.63;17.92;;;4.10;99.90;;;;;;4832888;29;20045;-93
2021/01/06 13:43:33;;;;;;;28.63;14.35;;;4.20;99.90;;;;;;4817896;29;20061;-93
2021/01/06 13:46:23;;;;;;;33.85;18.67;;;4.20;99.90;;;;;;4814159;29;20340;-93
2021/01/06 13:49:12;;;;;;;31.83;17.80;;;4.10;99.90;;;;;;4842765;29;20140;-93
2021/01/06 13:51:43;;;;;;;35.75;18.92;;;4.00;99.90;;;;;;5137121;23;20108;-93
2021/01/06 13:54:31;;;;;;;28.17;17.42;;;4.10;99.90;;;;;;4901516;29;20036;-94
2021/01/06 14:03:16;;;;;;;36.95;20.65;;;4.10;99.90;;;;;;5799718;23;20035;-90
2021/01/06 14:05:49;;;;;;;32.10;19.45;;;4.20;99.90;;;;;;4905357;29;20039;-92
2021/01/06 14:08:33;;;;;;;33.13;20.05;;;4.20;99.90;;;;;;4967394;23;20067;-92
2021/01/06 14:11:19;;;;;;;32.20;19.70;;;4.10;99.90;;;;;;4903144;29;20040;-92
2021/01/06 14:14:13;;;;;;;33.85;20.60;;;4.10;99.90;;;;;;4903396;29;20020;-94
2021/01/06 14:17:13;;;;;;;33.78;20.75;;;4.00;99.90;;;;;;4919919;29;20044;-91
2021/01/06 14:19:59;;;;;;;34.78;20.73;;;4.00;99.90;;;;;;4901734;29;20028;-92
2021/01/06 14:22:48;;;;;;;38.25;21.52;;;3.90;99.90;;;;;;4905699;29;20028;-92
2021/01/06 14:25:52;;;;;;;35.42;21.60;;;3.80;99.90;;;;;;4915180;29;20017;-92
2021/01/06 14:29:11;;;;;;;35.65;21.95;;;3.80;99.90;;;;;;4818533;29;20041;-93
2021/01/06 14:55:34;;;;;;;41.00;23.83;;;3.60;99.90;;;;;;4661004;29;20087;-86
2021/01/06 14:58:24;;;;;;;45.13;22.83;;;3.60;99.90;;;;;;4924518;23;20121;-90
2021/01/06 15:00:57;;;;;;;41.90;24.42;;;3.50;99.90;;;;;;4883367;29;20024;-93
2021/01/06 15:03:41;;;;;;;42.15;23.02;;;3.50;99.90;;;;;;4892537;29;20048;-90
2021/01/06 15:06:28;;;;;;;43.25;24.50;;;3.50;99.90;;;;;;4879238;29;20051;-92
2021/01/06 15:09:23;;;;;;;38.47;22.85;;;3.50;99.90;;;;;;4891410;29;20105;-90